createdAt,value
2023-02-15T00:00:12.006Z,-1.00
2023-02-15T00:02:39.684Z,-1.00
2023-02-15T00:05:08.307Z,-1.00
2023-02-15T00:07:35.317Z,-1.00
2023-02-15T00:10:02.328Z,-1.00
2023-02-15T00:12:29.188Z,-0.90
2023-02-15T00:14:56.114Z,-1.00
2023-02-15T00:17:23.347Z,-0.90
2023-02-15T00:19:50.665Z,-0.90
2023-02-15T00:22:17.552Z,-0.90
2023-02-15T00:24:44.419Z,-1.00
2023-02-15T00:27:11.274Z,-1.00
2023-02-15T00:29:38.220Z,-1.00
2023-02-15T00:32:05.211Z,-1.10
2023-02-15T00:34:32.153Z,-1.10
2023-02-15T00:36:59.068Z,-1.10
2023-02-15T00:39:26.420Z,-1.10
2023-02-15T00:41:53.276Z,-1.00
2023-02-15T00:44:20.178Z,-1.00
2023-02-15T00:46:47.208Z,-1.00
2023-02-15T00:49:14.085Z,-1.10
2023-02-15T00:51:40.985Z,-1.10
2023-02-15T00:54:08.593Z,-1.20
2023-02-15T00:56:35.580Z,-1.20
2023-02-15T00:59:02.905Z,-1.10
2023-02-15T01:01:30.015Z,-1.20
2023-02-15T01:03:57.218Z,-1.20
2023-02-15T01:06:24.098Z,-1.20
2023-02-15T01:08:51.028Z,-1.20
2023-02-15T01:11:23.546Z,-1.20
2023-02-15T01:13:55.417Z,-1.20
2023-02-15T01:16:26.078Z,-1.20
2023-02-15T01:18:53.350Z,-1.20
2023-02-15T01:21:24.725Z,-1.20
2023-02-15T01:23:52.022Z,-1.30
2023-02-15T01:26:19.042Z,-1.30
2023-02-15T01:28:47.012Z,-1.30
2023-02-15T01:31:19.301Z,-1.30
2023-02-15T01:33:48.502Z,-1.30
2023-02-15T01:36:18.151Z,-1.30
2023-02-15T01:38:45.800Z,-1.40
2023-02-15T01:41:25.368Z,-1.30
2023-02-15T01:44:00.475Z,-1.40
2023-02-15T01:46:44.839Z,-1.40
2023-02-15T01:49:27.802Z,-1.40
2023-02-15T01:51:55.131Z,-1.50
2023-02-15T01:54:33.219Z,-1.50
2023-02-15T01:57:11.756Z,-1.50
2023-02-15T01:59:43.785Z,-1.50
2023-02-15T02:02:15.688Z,-1.60
2023-02-15T02:04:52.259Z,-1.70
2023-02-15T02:07:24.840Z,-1.70
2023-02-15T02:09:52.302Z,-1.70
2023-02-15T02:12:22.953Z,-1.60
2023-02-15T02:14:53.779Z,-1.60
2023-02-15T02:17:50.327Z,-1.60
2023-02-15T02:20:54.273Z,-1.60
2023-02-15T02:24:04.827Z,-1.50
2023-02-15T02:27:42.697Z,-1.50
2023-02-15T02:30:45.685Z,-1.60
2023-02-15T02:34:17.502Z,-1.60
2023-02-15T02:37:31.521Z,-1.60
2023-02-15T02:41:05.402Z,-1.60
2023-02-15T02:44:05.793Z,-1.60
2023-02-15T02:47:12.739Z,-1.60
2023-02-15T02:49:44.023Z,-1.60
2023-02-15T02:52:46.401Z,-1.60
2023-02-15T02:55:43.439Z,-1.70
2023-02-15T02:58:30.063Z,-1.70
2023-02-15T03:01:13.729Z,-1.70
2023-02-15T03:03:53.882Z,-1.70
2023-02-15T03:06:34.280Z,-1.70
2023-02-15T03:09:21.986Z,-1.80
2023-02-15T03:11:50.386Z,-1.90
2023-02-15T03:14:20.007Z,-1.90
2023-02-15T03:16:51.663Z,-1.90
2023-02-15T03:19:49.067Z,-1.90
2023-02-15T03:22:43.528Z,-1.90
2023-02-15T03:25:32.434Z,-1.90
2023-02-15T03:28:20.268Z,-2.00
2023-02-15T03:30:56.297Z,-1.90
2023-02-15T03:33:28.922Z,-1.90
2023-02-15T03:36:48.335Z,-2.00
2023-02-15T03:39:42.917Z,-2.00
2023-02-15T03:42:23.584Z,-2.00
2023-02-15T03:45:10.753Z,-2.00
2023-02-15T03:47:48.712Z,-2.00
2023-02-15T03:50:45.606Z,-2.00
2023-02-15T03:53:22.066Z,-2.10
2023-02-15T03:55:56.464Z,-2.10
2023-02-15T03:58:42.093Z,-2.10
2023-02-15T04:01:58.035Z,-2.10
2023-02-15T04:04:42.845Z,-2.10
2023-02-15T04:07:11.043Z,-2.10
2023-02-15T04:09:56.783Z,-2.10
2023-02-15T04:12:24.429Z,-2.10
2023-02-15T04:15:10.074Z,-2.10
2023-02-15T04:17:39.840Z,-2.10
2023-02-15T04:20:27.552Z,-2.10
2023-02-15T04:23:12.984Z,-2.20
2023-02-15T04:25:39.869Z,-2.20
2023-02-15T04:28:08.425Z,-2.20
2023-02-15T04:30:35.427Z,-2.20
2023-02-15T04:33:02.328Z,-2.20
2023-02-15T04:35:29.198Z,-2.20
2023-02-15T04:37:56.695Z,-2.30
2023-02-15T04:40:23.625Z,-2.30
2023-02-15T04:42:50.610Z,-2.30
2023-02-15T04:45:18.547Z,-2.30
2023-02-15T04:47:45.921Z,-2.30
2023-02-15T04:50:12.866Z,-2.30
2023-02-15T04:52:40.078Z,-2.40
2023-02-15T04:55:07.892Z,-2.40
2023-02-15T04:57:34.868Z,-2.40
2023-02-15T05:00:02.044Z,-2.40
2023-02-15T05:02:28.887Z,-2.40
2023-02-15T05:04:55.737Z,-2.40
2023-02-15T05:07:22.594Z,-2.40
2023-02-15T05:09:49.681Z,-2.40
2023-02-15T05:12:16.716Z,-2.30
2023-02-15T05:14:43.606Z,-2.30
2023-02-15T05:17:10.498Z,-2.30
2023-02-15T05:19:37.358Z,-2.30
2023-02-15T05:22:04.261Z,-2.30
2023-02-15T05:24:49.658Z,-2.20
2023-02-15T05:27:37.086Z,-2.20
2023-02-15T05:30:04.918Z,-2.30
2023-02-15T05:32:32.061Z,-2.20
2023-02-15T05:34:58.978Z,-2.30
2023-02-15T05:37:25.863Z,-2.30
2023-02-15T05:39:52.719Z,-2.30
2023-02-15T05:42:19.595Z,-2.20
2023-02-15T05:44:46.465Z,-2.20
2023-02-15T05:47:13.321Z,-2.20
2023-02-15T05:49:40.208Z,-2.20
2023-02-15T05:52:07.175Z,-2.20
2023-02-15T05:54:34.025Z,-2.20
2023-02-15T05:57:00.919Z,-2.20
2023-02-15T05:59:27.880Z,-2.20
2023-02-15T06:01:54.799Z,-2.20
2023-02-15T06:04:21.833Z,-2.30
2023-02-15T06:06:48.823Z,-2.40
2023-02-15T06:09:15.868Z,-2.40
2023-02-15T06:11:42.807Z,-2.40
2023-02-15T06:14:09.678Z,-2.40
2023-02-15T06:16:36.723Z,-2.40
2023-02-15T06:19:04.660Z,-2.40
2023-02-15T06:21:32.430Z,-2.40
2023-02-15T06:23:59.410Z,-2.40
2023-02-15T06:26:26.609Z,-2.40
2023-02-15T06:28:53.475Z,-2.40
2023-02-15T06:31:20.877Z,-2.40
2023-02-15T06:33:47.822Z,-2.40
2023-02-15T06:36:14.650Z,-2.40
2023-02-15T06:38:41.498Z,-2.40
2023-02-15T06:41:08.468Z,-2.40
2023-02-15T06:43:35.376Z,-2.40
2023-02-15T06:46:03.010Z,-2.40
2023-02-15T06:48:30.142Z,-2.40
2023-02-15T06:50:57.055Z,-2.40
2023-02-15T06:53:23.936Z,-2.50
2023-02-15T06:55:50.828Z,-2.50
2023-02-15T06:58:17.714Z,-2.50
2023-02-15T07:00:44.687Z,-2.50
2023-02-15T07:03:15.653Z,-2.60
2023-02-15T07:05:42.670Z,-2.60
2023-02-15T07:08:09.572Z,-2.50
2023-02-15T07:10:36.530Z,-2.50
2023-02-15T07:13:03.535Z,-2.50
2023-02-15T07:15:30.610Z,-2.50
2023-02-15T07:17:59.912Z,-2.50
2023-02-15T07:20:27.100Z,-2.40
2023-02-15T07:22:53.968Z,-2.40
2023-02-15T07:25:21.337Z,-2.40
2023-02-15T07:27:48.825Z,-2.40
2023-02-15T07:30:18.233Z,-2.30
2023-02-15T07:33:05.847Z,-2.30
2023-02-15T07:35:34.156Z,-2.30
2023-02-15T07:38:02.134Z,-2.30
2023-02-15T07:40:29.024Z,-2.30
2023-02-15T07:42:59.907Z,-2.30
2023-02-15T07:45:26.949Z,-2.30
2023-02-15T07:47:53.804Z,-2.20
2023-02-15T07:50:20.725Z,-2.20
2023-02-15T07:52:47.569Z,-2.20
2023-02-15T07:55:14.621Z,-2.00
2023-02-15T07:57:47.248Z,-2.00
2023-02-15T08:00:17.778Z,-2.00
2023-02-15T08:03:16.053Z,-2.00
2023-02-15T08:05:46.141Z,-2.00
2023-02-15T08:08:31.742Z,-1.90
2023-02-15T08:11:36.953Z,-1.90
2023-02-15T08:14:21.090Z,-1.90
2023-02-15T08:16:53.187Z,-1.80
2023-02-15T08:19:30.876Z,-1.80
2023-02-15T08:22:06.454Z,-1.80
2023-02-15T08:24:40.472Z,-1.70
2023-02-15T08:27:11.849Z,-1.60
2023-02-15T08:29:40.144Z,-1.60
2023-02-15T08:32:11.455Z,-1.60
2023-02-15T08:34:42.797Z,-1.70
2023-02-15T08:37:10.411Z,-1.70
2023-02-15T08:39:37.618Z,-1.70
2023-02-15T08:42:04.896Z,-1.60
2023-02-15T08:44:31.846Z,-1.50
2023-02-15T08:47:03.687Z,-1.40
2023-02-15T08:49:30.780Z,-1.40
2023-02-15T08:51:57.708Z,-1.30
2023-02-15T08:54:24.883Z,-1.30
2023-02-15T08:56:51.963Z,-1.30
2023-02-15T08:59:23.912Z,-1.20
2023-02-15T09:04:09.457Z,-1.10
2023-02-15T09:06:39.153Z,-1.10
2023-02-15T09:09:08.277Z,-1.00
2023-02-15T09:11:40.324Z,-0.90
2023-02-15T09:14:20.882Z,-0.90
2023-02-15T09:16:51.757Z,-0.90
2023-02-15T09:19:22.901Z,-0.90
2023-02-15T09:21:49.985Z,-0.90
2023-02-15T09:24:18.481Z,-0.80
2023-02-15T09:26:49.566Z,-0.90
2023-02-15T09:29:19.749Z,-0.80
2023-02-15T09:31:51.464Z,-0.60
2023-02-15T09:34:23.001Z,-0.50
2023-02-15T09:36:51.961Z,-0.40
2023-02-15T09:39:28.205Z,-0.50
2023-02-15T09:42:12.836Z,-0.40
2023-02-15T09:45:28.372Z,-0.20
2023-02-15T09:48:31.633Z,-0.10
2023-02-15T09:51:51.873Z,-0.10
2023-02-15T09:55:02.021Z,-0.20
2023-02-15T09:58:13.787Z,-0.20
2023-02-15T10:01:20.423Z,0.10
2023-02-15T10:04:21.636Z,0.10
2023-02-15T10:07:23.269Z,0.00
2023-02-15T10:10:20.133Z,0.00
2023-02-15T10:13:13.476Z,0.00
2023-02-15T10:15:54.648Z,0.20
2023-02-15T10:19:12.241Z,0.30
2023-02-15T10:22:43.778Z,0.40
2023-02-15T10:25:47.931Z,0.30
2023-02-15T10:28:51.235Z,0.60
2023-02-15T10:31:44.410Z,0.70
2023-02-15T10:34:31.880Z,0.70
2023-02-15T10:38:07.662Z,0.70
2023-02-15T10:41:09.139Z,0.80
2023-02-15T10:44:35.730Z,1.10
2023-02-15T10:47:53.726Z,1.20
2023-02-15T10:50:26.207Z,1.40
2023-02-15T10:53:37.746Z,1.30
2023-02-15T10:56:45.642Z,1.20
2023-02-15T11:00:00.793Z,1.00
2023-02-15T11:03:18.644Z,1.00
2023-02-15T11:06:08.266Z,1.00
2023-02-15T11:08:45.857Z,1.10
2023-02-15T11:11:25.524Z,1.20
2023-02-15T11:14:03.076Z,1.20
2023-02-15T11:16:45.176Z,1.20
2023-02-15T11:19:32.965Z,1.10
2023-02-15T11:22:11.043Z,1.20
2023-02-15T11:24:46.669Z,1.20
2023-02-15T11:27:13.553Z,1.40
2023-02-15T11:30:10.599Z,1.40
2023-02-15T11:32:46.904Z,1.50
2023-02-15T11:35:35.252Z,1.70
2023-02-15T11:38:33.006Z,1.80
2023-02-15T11:41:21.640Z,2.10
2023-02-15T11:44:18.873Z,2.20
2023-02-15T11:46:45.789Z,2.10
2023-02-15T11:49:33.339Z,2.10
2023-02-15T11:52:06.987Z,2.80
2023-02-15T11:54:42.184Z,4.20
2023-02-15T11:57:34.676Z,4.40
2023-02-15T12:00:36.865Z,4.50
2023-02-15T12:03:25.369Z,4.90
2023-02-15T12:06:04.456Z,4.50
2023-02-15T12:09:11.451Z,4.00
2023-02-15T12:11:41.942Z,3.60
2023-02-15T12:14:16.638Z,3.60
2023-02-15T12:16:54.264Z,3.70
2023-02-15T12:19:33.730Z,3.80
2023-02-15T12:22:05.240Z,3.90
2023-02-15T12:24:47.250Z,4.00
2023-02-15T12:27:22.905Z,4.10
2023-02-15T12:30:00.313Z,4.10
2023-02-15T12:32:34.345Z,4.20
2023-02-15T12:35:33.372Z,4.50
2023-02-15T12:38:12.495Z,4.60
2023-02-15T12:40:40.975Z,4.20
2023-02-15T12:43:38.649Z,4.00
2023-02-15T12:46:27.136Z,3.70
2023-02-15T12:49:22.106Z,3.30
2023-02-15T12:52:04.298Z,3.20
2023-02-15T12:54:42.736Z,3.40
2023-02-15T12:57:40.379Z,3.80
2023-02-15T13:00:29.934Z,4.10
2023-02-15T13:02:59.631Z,3.90
2023-02-15T13:05:40.671Z,4.00
2023-02-15T13:08:31.215Z,4.10
2023-02-15T13:11:11.416Z,3.70
2023-02-15T13:13:58.830Z,3.40
2023-02-15T13:16:40.567Z,3.10
2023-02-15T13:19:28.011Z,3.10
2023-02-15T13:21:58.904Z,3.10
2023-02-15T13:24:36.900Z,2.90
2023-02-15T13:27:15.092Z,2.50
2023-02-15T13:29:50.867Z,2.20
2023-02-15T13:32:41.755Z,2.00
2023-02-15T13:35:18.141Z,1.80
2023-02-15T13:38:16.757Z,1.80
2023-02-15T13:41:04.208Z,1.80
2023-02-15T13:44:15.906Z,1.60
2023-02-15T13:47:10.878Z,1.60
2023-02-15T13:50:00.777Z,1.60
2023-02-15T13:52:30.748Z,1.80
2023-02-15T13:55:41.090Z,1.90
2023-02-15T13:58:31.198Z,2.40
2023-02-15T14:01:31.432Z,2.90
2023-02-15T14:04:42.601Z,3.90
2023-02-15T14:08:06.034Z,5.00
2023-02-15T14:10:47.605Z,5.50
2023-02-15T14:14:13.495Z,6.40
2023-02-15T14:17:32.249Z,6.90
2023-02-15T14:20:21.951Z,7.40
2023-02-15T14:23:17.085Z,8.20
2023-02-15T14:26:05.664Z,7.80
2023-02-15T14:28:56.192Z,6.60
2023-02-15T14:31:38.381Z,7.20
2023-02-15T14:34:05.339Z,5.80
2023-02-15T14:36:34.119Z,4.30
2023-02-15T14:39:42.824Z,3.50
2023-02-15T14:42:43.622Z,3.00
2023-02-15T14:45:44.549Z,2.40
2023-02-15T14:48:31.263Z,2.10
2023-02-15T14:50:58.832Z,2.30
2023-02-15T14:53:39.270Z,3.60
2023-02-15T14:56:11.978Z,4.40
2023-02-15T14:58:56.290Z,4.90
2023-02-15T15:01:36.964Z,5.70
2023-02-15T15:04:12.791Z,6.50
2023-02-15T15:06:44.936Z,6.90
2023-02-15T15:09:23.858Z,6.80
2023-02-15T15:11:54.708Z,6.30
2023-02-15T15:14:33.579Z,5.70
2023-02-15T15:17:07.830Z,4.90
2023-02-15T15:19:53.726Z,4.00
2023-02-15T15:22:28.484Z,3.20
2023-02-15T15:25:38.535Z,2.60
2023-02-15T15:28:07.523Z,2.50
2023-02-15T15:30:34.317Z,2.50
2023-02-15T15:33:53.702Z,2.30
2023-02-15T15:37:12.265Z,2.10
2023-02-15T15:40:09.528Z,1.90
2023-02-15T15:43:09.012Z,1.50
2023-02-15T15:46:14.723Z,1.20
2023-02-15T15:48:43.053Z,0.90
2023-02-15T15:51:34.414Z,0.70
2023-02-15T15:54:04.765Z,0.60
2023-02-15T15:56:37.923Z,0.40
2023-02-15T15:59:22.290Z,0.20
2023-02-15T16:01:50.815Z,0.20
2023-02-15T16:04:33.564Z,0.10
2023-02-15T16:07:24.752Z,0.00
2023-02-15T16:10:27.753Z,-0.10
2023-02-15T16:12:56.558Z,-0.20
2023-02-15T16:15:53.060Z,-0.20
2023-02-15T16:18:27.923Z,-0.30
2023-02-15T16:21:02.207Z,-0.30
2023-02-15T16:24:09.024Z,-0.30
2023-02-15T16:27:21.183Z,-0.30
2023-02-15T16:29:48.195Z,-0.40
2023-02-15T16:32:26.238Z,-0.40
2023-02-15T16:35:03.738Z,-0.40
2023-02-15T16:37:36.124Z,-0.40
2023-02-15T16:40:03.982Z,-0.40
2023-02-15T16:42:31.045Z,-0.40
2023-02-15T16:45:09.496Z,-0.40
2023-02-15T16:47:46.165Z,-0.40
2023-02-15T16:50:38.027Z,-0.50
2023-02-15T16:53:20.585Z,-0.50
2023-02-15T16:55:56.193Z,-0.50
2023-02-15T16:58:42.150Z,-0.50
2023-02-15T17:01:15.621Z,-0.50
2023-02-15T17:03:43.567Z,-0.50
2023-02-15T17:06:30.293Z,-0.50
2023-02-15T17:09:23.181Z,-0.40
2023-02-15T17:11:50.115Z,-0.50
2023-02-15T17:14:41.233Z,-0.50
2023-02-15T17:17:15.893Z,-0.50
2023-02-15T17:19:55.920Z,-0.50
2023-02-15T17:22:27.936Z,-0.50
2023-02-15T17:25:05.372Z,-0.50
2023-02-15T17:27:35.577Z,-0.40
2023-02-15T17:30:17.974Z,-0.50
2023-02-15T17:33:00.493Z,-0.50
2023-02-15T17:35:33.228Z,-0.50
2023-02-15T17:38:18.835Z,-0.60
2023-02-15T17:40:45.825Z,-0.60
2023-02-15T17:43:12.761Z,-0.60
2023-02-15T17:45:52.146Z,-0.60
2023-02-15T17:48:36.364Z,-0.60
2023-02-15T17:51:12.083Z,-0.70
2023-02-15T17:53:39.331Z,-0.70
2023-02-15T17:56:12.967Z,-0.70
2023-02-15T17:58:40.236Z,-0.70
2023-02-15T18:01:36.991Z,-0.80
2023-02-15T18:04:23.972Z,-0.80
2023-02-15T18:07:09.647Z,-0.80
2023-02-15T18:09:54.982Z,-0.90
2023-02-15T18:12:27.709Z,-0.90
2023-02-15T18:14:56.863Z,-1.00
2023-02-15T18:17:37.633Z,-1.10
2023-02-15T18:20:34.714Z,-1.10
2023-02-15T18:23:02.086Z,-1.10
2023-02-15T18:25:29.293Z,-1.20
2023-02-15T18:27:56.370Z,-1.20
2023-02-15T18:30:27.916Z,-1.20
2023-02-15T18:32:59.530Z,-1.30
2023-02-15T18:35:33.073Z,-1.30
2023-02-15T18:38:02.041Z,-1.30
2023-02-15T18:40:30.488Z,-1.40
2023-02-15T18:42:57.497Z,-1.30
2023-02-15T18:45:33.013Z,-1.40
2023-02-15T18:48:00.145Z,-1.50
2023-02-15T18:50:34.468Z,-1.50
2023-02-15T18:53:06.568Z,-1.50
2023-02-15T18:55:35.462Z,-1.50
2023-02-15T18:58:02.741Z,-1.60
2023-02-15T19:00:34.656Z,-1.50
2023-02-15T19:03:03.338Z,-1.50
2023-02-15T19:05:32.991Z,-1.50
2023-02-15T19:08:03.026Z,-1.50
2023-02-15T19:10:33.696Z,-1.50
2023-02-15T19:13:00.676Z,-1.40
2023-02-15T19:15:30.721Z,-1.40
2023-02-15T19:17:57.587Z,-1.30
2023-02-15T19:20:42.442Z,-1.40
2023-02-15T19:23:24.716Z,-1.40
2023-02-15T19:25:54.460Z,-1.50
2023-02-15T19:28:34.319Z,-1.40
2023-02-15T19:31:01.353Z,-1.40
2023-02-15T19:33:28.272Z,-1.40
2023-02-15T19:35:59.815Z,-1.40
2023-02-15T19:38:35.049Z,-1.40
2023-02-15T19:41:15.864Z,-1.50
2023-02-15T19:43:42.745Z,-1.50
2023-02-15T19:46:18.980Z,-1.60
2023-02-15T19:48:46.768Z,-1.70
2023-02-15T19:51:14.557Z,-1.60
2023-02-15T19:53:41.689Z,-1.60
2023-02-15T19:56:23.881Z,-1.60
2023-02-15T19:58:57.620Z,-1.60
2023-02-15T20:01:25.361Z,-1.60
2023-02-15T20:03:53.315Z,-1.60
2023-02-15T20:06:20.252Z,-1.60
2023-02-15T20:08:47.339Z,-1.60
2023-02-15T20:11:14.383Z,-1.60
2023-02-15T20:13:41.335Z,-1.60
2023-02-15T20:16:09.714Z,-1.60
2023-02-15T20:18:36.732Z,-1.60
2023-02-15T20:21:05.229Z,-1.60
2023-02-15T20:23:36.356Z,-1.60
2023-02-15T20:26:18.797Z,-1.70
2023-02-15T20:28:46.775Z,-1.70
2023-02-15T20:31:20.313Z,-1.70
2023-02-15T20:33:48.828Z,-1.70
2023-02-15T20:36:20.355Z,-1.70
2023-02-15T20:38:48.296Z,-1.70
2023-02-15T20:41:38.945Z,-1.70
2023-02-15T20:44:22.301Z,-1.70
2023-02-15T20:46:55.047Z,-1.70
2023-02-15T20:49:25.423Z,-1.70
2023-02-15T20:51:55.892Z,-1.80
2023-02-15T20:54:35.918Z,-1.80
2023-02-15T20:57:05.846Z,-1.70
2023-02-15T20:59:34.792Z,-1.80
2023-02-15T21:02:22.046Z,-1.80
2023-02-15T21:04:49.713Z,-1.80
2023-02-15T21:07:20.557Z,-1.80
2023-02-15T21:09:48.517Z,-1.90
2023-02-15T21:12:21.030Z,-1.90
2023-02-15T21:14:48.278Z,-1.90
2023-02-15T21:17:17.346Z,-1.90
2023-02-15T21:19:44.440Z,-1.90
2023-02-15T21:22:14.530Z,-2.00
2023-02-15T21:24:51.814Z,-2.00
2023-02-15T21:27:19.104Z,-2.10
2023-02-15T21:29:46.059Z,-2.10
2023-02-15T21:32:13.115Z,-2.10
2023-02-15T21:34:40.654Z,-2.00
2023-02-15T21:37:36.263Z,-2.00
2023-02-15T21:40:06.797Z,-2.10
2023-02-15T21:42:52.801Z,-2.10
2023-02-15T21:45:38.355Z,-2.10
2023-02-15T21:48:05.437Z,-2.00
2023-02-15T21:50:53.337Z,-2.10
2023-02-15T21:53:47.346Z,-2.10
2023-02-15T21:56:21.339Z,-2.00
2023-02-15T21:58:48.800Z,-2.10
2023-02-15T22:01:28.094Z,-2.10
2023-02-15T22:03:59.404Z,-2.10
2023-02-15T22:06:26.427Z,-2.10
2023-02-15T22:08:53.318Z,-2.10
2023-02-15T22:11:22.571Z,-2.10
2023-02-15T22:13:51.226Z,-2.10
2023-02-15T22:16:22.950Z,-2.10
2023-02-15T22:18:50.395Z,-2.10
2023-02-15T22:21:18.022Z,-2.20
2023-02-15T22:23:46.935Z,-2.30
2023-02-15T22:26:27.585Z,-2.40
2023-02-15T22:28:56.597Z,-2.40
2023-02-15T22:31:23.960Z,-2.50
2023-02-15T22:33:51.114Z,-2.50
2023-02-15T22:36:30.836Z,-2.60
2023-02-15T22:38:58.534Z,-2.70
2023-02-15T22:41:31.035Z,-2.70
2023-02-15T22:43:58.275Z,-2.70
2023-02-15T22:46:26.488Z,-2.70
2023-02-15T22:48:58.078Z,-2.80
2023-02-15T22:51:25.561Z,-2.80
2023-02-15T22:53:53.661Z,-2.70
2023-02-15T22:56:41.898Z,-2.70
2023-02-15T22:59:28.693Z,-2.80
2023-02-15T23:01:57.328Z,-2.90
2023-02-15T23:04:29.108Z,-2.90
2023-02-15T23:07:00.489Z,-2.90
2023-02-15T23:09:27.419Z,-3.00
2023-02-15T23:11:54.731Z,-3.00
2023-02-15T23:14:36.461Z,-2.90
2023-02-15T23:17:03.642Z,-3.00
2023-02-15T23:19:30.518Z,-2.90
2023-02-15T23:21:57.404Z,-2.90
2023-02-15T23:24:30.555Z,-2.90
2023-02-15T23:27:18.878Z,-2.90
2023-02-15T23:29:46.385Z,-2.80
2023-02-15T23:32:15.115Z,-2.80
2023-02-15T23:34:43.356Z,-2.80
2023-02-15T23:37:14.104Z,-2.90
2023-02-15T23:39:59.526Z,-2.80
2023-02-15T23:42:34.879Z,-2.80
2023-02-15T23:45:03.196Z,-2.90
2023-02-15T23:47:53.929Z,-2.90
2023-02-15T23:50:28.084Z,-3.00
2023-02-15T23:52:57.358Z,-2.90
2023-02-15T23:55:35.874Z,-2.90
2023-02-15T23:58:16.380Z,-3.00
